Terminal Aerodrome Forecast
Issued by NWS Lake Charles, LA

Home | Current Version | Previous Version | Text Only | Print | Product List | Glossary On
Versions: 1 2 3 4 5 6 7 8 9 10 11 12 13 14 15 16 17 18 19 20 21 22 23 24
000
FTUS44 KLCH 010156 AAA
TAFBPT
TAF AMD
KBPT 010156Z 0102/0124 15008KT P6SM BKN012
     FM010800 VRB03KT 4SM BR BKN005
     FM011400 VRB06KT P6SM VCSH SCT007 OVC015
     FM011700 15010KT P6SM VCSH SCT020 BKN035 PROB30 0118/0124 3SM
      SHRA BKN020=

USA.gov is the U.S. government's official web portal to all federal, state and local government web resources and services.